| time (UTC) | temp F | wind direction | speed knots | gust knots | rain 1hr in | rain 24hr in | rain mn in | humidity % | barometer mb |
| 20260509171004 | 69 | 56 | 3.5 | 7.0 | 0.00 | 0.00 | 0.00 | 51 | 1013.9 |
| 20260509170505 | 68 | 102 | 6.1 | 8.7 | 0.00 | 0.00 | 0.00 | 51 | 1014.2 |
| 20260509170005 | 69 | 100 | 4.3 | 8.7 | 0.00 | 0.00 | 0.00 | 50 | 1013.9 |
| 20260509164505 | 69 | 115 | 6.1 | 11.3 | 0.00 | 0.00 | 0.00 | 51 | 1013.9 |
| 20260509163504 | 69 | 149 | 2.6 | 7.0 | 0.00 | 0.00 | 0.00 | 50 | 1014.2 |
| 20260509163005 | 70 | 12 | 4.3 | 8.7 | 0.00 | 0.00 | 0.00 | 50 | 1014.5 |
| 20260509161504 | 70 | 8 | 4.3 | 6.1 | 0.00 | 0.00 | 0.00 | 49 | 1014.2 |
| 20260509161005 | 69 | 76 | 1.7 | 7.0 | 0.00 | 0.00 | 0.00 | 52 | 1014.2 |
| 20260509160504 | 70 | 151 | 1.7 | 6.1 | 0.00 | 0.00 | 0.00 | 50 | 1014.6 |
| 20260509160004 | 70 | 315 | 3.5 | 7.0 | 0.00 | 0.00 | 0.00 | 48 | 1014.5 |
| 20260509154504 | 69 | 219 | 3.5 | 8.7 | 0.00 | 0.00 | 0.00 | 50 | 1014.6 |
| 20260509154004 | 69 | 87 | 3.5 | 11.3 | 0.00 | 0.00 | 0.00 | 51 | 1014.6 |
| 20260509153505 | 70 | 18 | 4.3 | 7.0 | 0.00 | 0.00 | 0.00 | 50 | 1014.6 |
| 20260509151505 | 69 | 103 | 2.6 | 7.0 | 0.00 | 0.00 | 0.00 | 50 | 1015.2 |
| 20260509151005 | 69 | 95 | 2.6 | 8.7 | 0.00 | 0.00 | 0.00 | 50 | 1014.9 |
| 20260509150504 | 69 | 106 | 2.6 | 8.7 | 0.00 | 0.00 | 0.00 | 51 | 1015.2 |
| 20260509150004 | 70 | 28 | 2.6 | 11.3 | 0.00 | 0.00 | 0.00 | 50 | 1015.2 |
| 20260509144504 | 69 | 358 | 2.6 | 6.1 | 0.00 | 0.00 | 0.00 | 51 | 1015.2 |
| 20260509144004 | 70 | 72 | 1.7 | 7.0 | 0.00 | 0.00 | 0.00 | 51 | 1015.2 |
| 20260509143504 | 70 | 29 | 6.1 | 8.7 | 0.00 | 0.00 | 0.00 | 51 | 1015.2 |
| 20260509143005 | 70 | 100 | 3.5 | 13.0 | 0.00 | 0.00 | 0.00 | 52 | 1015.2 |
| 20260509141505 | 68 | 108 | 4.3 | 8.7 | 0.00 | 0.00 | 0.00 | 56 | 1015.6 |
| 20260509141005 | 67 | 341 | 1.7 | 8.7 | 0.00 | 0.00 | 0.00 | 54 | 1015.6 |
| 20260509140504 | 69 | 100 | 4.3 | 7.0 | 0.00 | 0.00 | 0.00 | 53 | 1015.6 |
| 20260509134504 | 67 | 135 | 2.6 | 8.7 | 0.00 | 0.00 | 0.00 | 57 | 1015.6 |
| 20260509134004 | 68 | 6 | 6.1 | 8.7 | 0.00 | 0.00 | 0.00 | 54 | 1015.9 |
| 20260509133004 | 69 | 338 | 2.6 | 15.6 | 0.00 | 0.00 | 0.00 | 54 | 1015.9 |
| 20260509130504 | 70 | 118 | 5.2 | 8.7 | 0.00 | 0.00 | 0.00 | 55 | 1015.9 |
| 20260509130004 | 68 | 78 | 3.5 | 12.2 | 0.00 | 0.00 | 0.00 | 55 | 1016.0 |
| 20260509124504 | 68 | 164 | 4.3 | 11.3 | 0.00 | 0.00 | 0.00 | 54 | 1016.3 |
| 20260509124004 | 67 | 116 | 5.2 | 12.2 | 0.00 | 0.00 | 0.00 | 56 | 1016.3 |
| 20260509123504 | 68 | 128 | 8.7 | 13.0 | 0.00 | 0.00 | 0.00 | 56 | 1016.0 |
| 20260509123004 | 68 | 319 | 1.7 | 8.7 | 0.00 | 0.00 | 0.00 | 55 | 1016.3 |
| 20260509121505 | 67 | 215 | 1.7 | 11.3 | 0.00 | 0.00 | 0.00 | 55 | 1016.6 |
| 20260509121004 | 68 | 143 | 8.7 | 11.3 | 0.00 | 0.00 | 0.00 | 57 | 1016.6 |
| 20260509120504 | 67 | 101 | 2.6 | 6.1 | 0.00 | 0.00 | 0.00 | 58 | 1016.8 |
| 20260509120004 | 66 | 134 | 5.2 | 12.2 | 0.00 | 0.00 | 0.00 | 59 | 1016.6 |
| 20260509114504 | 68 | 337 | 6.1 | 12.2 | 0.00 | 0.00 | 0.00 | 55 | 1016.6 |
| 20260509114004 | 68 | 141 | 2.6 | 8.7 | 0.00 | 0.00 | 0.00 | 57 | 1016.7 |
| 20260509113504 | 67 | 105 | 5.2 | 11.3 | 0.00 | 0.00 | 0.00 | 57 | 1016.9 |
| 20260509113004 | 67 | 68 | 1.7 | 11.3 | 0.00 | 0.00 | 0.00 | 60 | 1016.9 |
| 20260509111505 | 66 | 64 | 5.2 | 15.6 | 0.00 | 0.00 | 0.00 | 58 | 1017.0 |
| 20260509110005 | 67 | 114 | 6.1 | 14.8 | 0.00 | 0.00 | 0.00 | 58 | 1017.3 |
| 20260509104504 | 66 | 93 | 1.7 | 8.7 | 0.00 | 0.00 | 0.00 | 58 | 1017.4 |
| 20260509104004 | 66 | 154 | 2.6 | 11.3 | 0.00 | 0.00 | 0.00 | 58 | 1017.6 |
| 20260509103504 | 66 | 130 | 6.1 | 13.0 | 0.00 | 0.00 | 0.00 | 58 | 1017.6 |
| 20260509103004 | 65 | 105 | 5.2 | 11.3 | 0.00 | 0.00 | 0.00 | 60 | 1017.6 |
| 20260509101505 | 65 | 292 | 5.2 | 13.0 | 0.00 | 0.00 | 0.00 | 63 | 1017.6 |
| 20260509101004 | 64 | 104 | 7.0 | 12.2 | 0.00 | 0.00 | 0.00 | 66 | 1017.6 |
| 20260509100504 | 64 | 152 | 2.6 | 14.8 | 0.00 | 0.00 | 0.00 | 65 | 1017.6 |
| 20260509100005 | 64 | 290 | 4.3 | 12.2 | 0.00 | 0.00 | 0.00 | 64 | 1017.6 |
| 20260509094506 | 62 | 67 | 6.1 | 11.3 | 0.00 | 0.00 | 0.00 | 68 | 1017.9 |
| 20260509093005 | 62 | 78 | 6.1 | 11.3 | 0.00 | 0.00 | 0.00 | 71 | 1018.1 |
| 20260509091506 | 60 | 124 | 1.7 | 7.0 | 0.00 | 0.00 | 0.00 | 72 | 1018.3 |
| 20260509091005 | 61 | 90 | 4.3 | 12.2 | 0.00 | 0.00 | 0.00 | 70 | 1018.1 |
| 20260509090506 | 61 | 99 | 2.6 | 7.0 | 0.00 | 0.00 | 0.00 | 73 | 1018.3 |
| 20260509090006 | 60 | 119 | 4.3 | 8.7 | 0.00 | 0.00 | 0.00 | 72 | 1018.3 |
| 20260509084505 | 59 | 104 | 2.6 | 7.0 | 0.00 | 0.00 | 0.00 | 73 | 1018.0 |
| 20260509084005 | 59 | 119 | 1.7 | 13.0 | 0.00 | 0.00 | 0.00 | 76 | 1018.3 |
| 20260509083006 | 58 | 116 | 4.3 | 12.2 | 0.00 | 0.00 | 0.00 | 76 | 1018.3 |
| 20260509081506 | 57 | 99 | 6.1 | 8.7 | 0.00 | 0.00 | 0.00 | 76 | 1018.3 |
| 20260509080505 | 57 | 108 | 5.2 | 7.0 | 0.00 | 0.00 | 0.00 | 77 | 1018.3 |
| 20260509080005 | 57 | 110 | 4.3 | 7.0 | 0.00 | 0.00 | 0.00 | 77 | 1018.3 |
| 20260509074506 | 56 | 92 | 2.6 | 11.3 | 0.00 | 0.00 | 0.00 | 80 | 1018.3 |
| 20260509073506 | 55 | 105 | 5.2 | 12.2 | 0.00 | 0.00 | 0.00 | 80 | 1018.3 |
| 20260509073006 | 56 | 322 | 2.6 | 8.7 | 0.00 | 0.00 | 0.00 | 78 | 1018.3 |
| 20260509071506 | 54 | 105 | 2.6 | 8.7 | 0.00 | 0.00 | 0.00 | 81 | 1018.3 |
| 20260509071006 | 54 | 122 | 6.1 | 8.7 | 0.00 | 0.00 | 0.00 | 82 | 1018.4 |
| 20260509070506 | 54 | 135 | 8.7 | 12.2 | 0.00 | 0.00 | 0.00 | 82 | 1018.6 |
| 20260509070006 | 54 | 108 | 4.3 | 11.3 | 0.00 | 0.00 | 0.00 | 83 | 1018.5 |
| 20260509064505 | 53 | 91 | 7.8 | 11.3 | 0.00 | 0.00 | 0.00 | 84 | 1018.3 |
| 20260509064006 | 53 | 93 | 2.6 | 7.0 | 0.00 | 0.00 | 0.00 | 83 | 1018.5 |
| 20260509063006 | 53 | 118 | 1.7 | 2.6 | 0.00 | 0.00 | 0.00 | 83 | 1018.5 |
| 20260509061506 | 52 | 146 | 0.0 | 1.7 | 0.00 | 0.00 | 0.00 | 85 | 1018.3 |
| 20260509061006 | 51 | 115 | 0.9 | 2.6 | 0.00 | 0.00 | 0.00 | 85 | 1018.3 |
| 20260509060505 | 51 | 188 | 0.9 | 1.7 | 0.00 | 0.00 | 0.00 | 85 | 1018.3 |
| 20260509060005 | 51 | 313 | 0.9 | 1.7 | 0.00 | 0.00 | 0.00 | 83 | 1018.3 |
| 20260509054006 | 47 | 296 | 0.0 | 0.0 | 0.00 | 0.00 | 0.00 | 86 | 1018.3 |
| 20260509053506 | 47 | 289 | 0.0 | 0.0 | 0.00 | 0.00 | 0.00 | 86 | 1018.3 |
| 20260509053005 | 46 | 284 | 0.0 | 0.0 | 0.00 | 0.00 | 0.00 | 88 | 1018.3 |
| 20260509051506 | 43 | 283 | 0.0 | 0.0 | 0.00 | 0.00 | 0.00 | 96 | 1018.3 |
| 20260509051005 | 42 | 283 | 0.0 | 0.0 | 0.00 | 0.00 | 0.00 | 97 | 1018.3 |
| 20260509050505 | 42 | 283 | 0.0 | 0.0 | 0.00 | 0.00 | 0.00 | 97 | 1018.3 |
| 20260509050005 | 42 | 282 | 0.0 | 0.0 | 0.00 | 0.00 | 0.00 | 97 | 1018.3 |
| 20260509044505 | 39 | 283 | 0.0 | 0.0 | 0.00 | 0.00 | 0.00 | 98 | 1018.1 |
| 20260509043506 | 39 | 283 | 0.0 | 0.0 | 0.00 | 0.00 | 0.00 | 98 | 1017.9 |
| 20260509043005 | 38 | 283 | 0.0 | 0.0 | 0.00 | 0.00 | 0.00 | 98 | 1017.9 |
| 20260509041506 | 38 | 283 | 0.0 | 0.0 | 0.00 | 0.00 | 0.00 | 98 | 1017.9 |
| 20260509041006 | 37 | 283 | 0.0 | 0.0 | 0.00 | 0.00 | 0.00 | 98 | 1018.0 |
| 20260509040505 | 37 | 283 | 0.0 | 0.0 | 0.00 | 0.00 | 0.00 | 97 | 1017.9 |
| 20260509040005 | 37 | 283 | 0.0 | 0.0 | 0.00 | 0.00 | 0.00 | 97 | 1017.9 |
| 20260509034505 | 37 | 283 | 0.0 | 0.0 | 0.00 | 0.00 | 0.00 | 97 | 1017.9 |
| 20260509034005 | 38 | 283 | 0.0 | 0.0 | 0.00 | 0.00 | 0.00 | 97 | 1017.6 |
| 20260509033505 | 38 | 283 | 0.0 | 0.0 | 0.00 | 0.00 | 0.00 | 97 | 1017.7 |
| 20260509033005 | 38 | 283 | 0.0 | 0.0 | 0.00 | 0.00 | 0.00 | 97 | 1017.8 |
| 20260509031506 | 38 | 283 | 0.0 | 0.0 | 0.00 | 0.00 | 0.00 | 97 | 1017.9 |
| 20260509030505 | 38 | 283 | 0.0 | 0.0 | 0.00 | 0.00 | 0.00 | 97 | 1017.9 |
| 20260509030005 | 38 | 283 | 0.0 | 0.0 | 0.00 | 0.00 | 0.00 | 97 | 1017.9 |
| 20260509024505 | 38 | 283 | 0.0 | 0.0 | 0.00 | 0.00 | 0.00 | 97 | 1017.9 |
| 20260509024005 | 38 | 283 | 0.0 | 0.0 | 0.00 | 0.00 | 0.00 | 97 | 1018.0 |
| 20260509023506 | 39 | 283 | 0.0 | 0.0 | 0.00 | 0.00 | 0.00 | 97 | 1018.1 |
| 20260509023005 | 39 | 283 | 0.0 | 0.0 | 0.00 | 0.00 | 0.00 | 97 | 1018.2 |
| 20260509021505 | 39 | 283 | 0.0 | 0.0 | 0.00 | 0.00 | 0.00 | 96 | 1018.3 |
| 20260509021005 | 39 | 283 | 0.0 | 0.0 | 0.00 | 0.00 | 0.00 | 97 | 1018.1 |
| 20260509020505 | 39 | 283 | 0.0 | 0.0 | 0.00 | 0.00 | 0.00 | 96 | 1018.0 |
| 20260509020005 | 39 | 283 | 0.0 | 1.7 | 0.00 | 0.00 | 0.00 | 96 | 1017.9 |
| 20260509014505 | 39 | 283 | 0.0 | 0.0 | 0.00 | 0.00 | 0.00 | 96 | 1018.1 |
| 20260509014005 | 39 | 283 | 0.0 | 0.0 | 0.00 | 0.00 | 0.00 | 96 | 1018.0 |
| 20260509013506 | 39 | 283 | 0.0 | 2.6 | 0.00 | 0.00 | 0.00 | 96 | 1018.2 |
| 20260509013005 | 39 | 283 | 1.7 | 2.6 | 0.00 | 0.00 | 0.00 | 96 | 1018.2 |
| 20260509011505 | 40 | 283 | 0.0 | 0.0 | 0.00 | 0.00 | 0.00 | 96 | 1017.9 |
| 20260509011005 | 40 | 283 | 0.0 | 0.0 | 0.00 | 0.00 | 0.00 | 96 | 1017.9 |
| 20260509010505 | 40 | 283 | 0.0 | 0.0 | 0.00 | 0.00 | 0.00 | 96 | 1018.3 |
| 20260509004505 | 40 | 283 | 0.0 | 0.0 | 0.00 | 0.00 | 0.00 | 95 | 1018.3 |
| 20260509004005 | 40 | 283 | 0.0 | 0.0 | 0.00 | 0.00 | 0.00 | 95 | 1018.0 |
| 20260509003505 | 40 | 283 | 0.0 | 0.0 | 0.00 | 0.00 | 0.00 | 95 | 1018.0 |
| 20260509003005 | 41 | 283 | 0.0 | 0.0 | 0.00 | 0.00 | 0.00 | 95 | 1018.3 |
| 20260509001506 | 41 | 283 | 0.0 | 0.0 | 0.00 | 0.00 | 0.00 | 95 | 1018.1 |
| 20260509001005 | 41 | 283 | 0.0 | 0.0 | 0.00 | 0.00 | 0.00 | 94 | 1017.9 |
| 20260509000505 | 41 | 283 | 0.0 | 0.0 | 0.00 | 0.00 | 0.00 | 94 | 1017.9 |
| 20260509000005 | 41 | 283 | 0.0 | 0.0 | 0.00 | 0.00 | 0.00 | 94 | 1017.9 |
| 20260508234505 | 42 | 283 | 0.0 | 0.0 | 0.00 | 0.00 | 0.00 | 94 | 1018.3 |
| 20260508234005 | 41 | 283 | 0.0 | 0.0 | 0.00 | 0.00 | 0.00 | 94 | 1018.3 |
| 20260508233506 | 42 | 283 | 0.0 | 0.0 | 0.00 | 0.00 | 0.00 | 93 | 1018.2 |
| 20260508233005 | 42 | 283 | 0.0 | 0.0 | 0.00 | 0.00 | 0.00 | 93 | 1017.9 |
| 20260508231505 | 42 | 284 | 0.0 | 0.0 | 0.00 | 0.00 | 0.00 | 93 | 1018.0 |
| 20260508231005 | 42 | 283 | 0.0 | 2.6 | 0.00 | 0.00 | 0.00 | 93 | 1018.3 |
| 20260508230504 | 42 | 284 | 0.9 | 2.6 | 0.00 | 0.00 | 0.00 | 93 | 1018.3 |
| 20260508230004 | 43 | 284 | 0.0 | 2.6 | 0.00 | 0.00 | 0.00 | 93 | 1018.3 |
| 20260508224505 | 43 | 285 | 0.0 | 0.0 | 0.00 | 0.00 | 0.00 | 92 | 1018.3 |
| 20260508224005 | 43 | 285 | 0.0 | 0.0 | 0.00 | 0.00 | 0.00 | 92 | 1018.3 |
| 20260508223505 | 43 | 285 | 0.0 | 0.0 | 0.00 | 0.00 | 0.00 | 92 | 1018.3 |
| 20260508223005 | 43 | 285 | 0.0 | 1.7 | 0.00 | 0.00 | 0.00 | 92 | 1018.3 |
| 20260508221505 | 43 | 285 | 0.9 | 2.6 | 0.00 | 0.00 | 0.00 | 91 | 1018.3 |
| 20260508220005 | 44 | 285 | 0.0 | 0.0 | 0.00 | 0.00 | 0.00 | 91 | 1017.9 |
| 20260508214504 | 45 | 285 | 0.0 | 0.0 | 0.00 | 0.00 | 0.00 | 89 | 1017.9 |
| 20260508214005 | 45 | 285 | 0.0 | 0.0 | 0.00 | 0.00 | 0.00 | 88 | 1017.9 |
| 20260508213505 | 46 | 285 | 0.0 | 0.0 | 0.00 | 0.00 | 0.00 | 89 | 1017.9 |
| 20260508213005 | 46 | 285 | 0.0 | 0.0 | 0.00 | 0.00 | 0.00 | 89 | 1017.9 |
| 20260508210505 | 46 | 285 | 1.7 | 1.7 | 0.00 | 0.00 | 0.00 | 88 | 1017.6 |
| 20260508204505 | 48 | 286 | 0.0 | 0.0 | 0.00 | 0.00 | 0.00 | 86 | 1017.6 |
| 20260508204005 | 49 | 286 | 0.0 | 0.0 | 0.00 | 0.00 | 0.00 | 85 | 1017.6 |
| 20260508203005 | 50 | 339 | 0.0 | 0.0 | 0.00 | 0.00 | 0.00 | 83 | 1017.6 |
| 20260508201506 | 51 | 339 | 0.0 | 0.0 | 0.00 | 0.00 | 0.00 | 81 | 1017.6 |
| 20260508201005 | 51 | 339 | 0.0 | 0.0 | 0.00 | 0.00 | 0.00 | 80 | 1017.6 |
| 20260508200505 | 51 | 339 | 0.0 | 0.0 | 0.00 | 0.00 | 0.00 | 80 | 1017.3 |
| 20260508200005 | 52 | 339 | 0.0 | 0.0 | 0.00 | 0.00 | 0.00 | 79 | 1017.4 |
| 20260508194504 | 53 | 340 | 0.0 | 0.0 | 0.00 | 0.00 | 0.00 | 76 | 1017.3 |
| 20260508194004 | 54 | 340 | 0.0 | 0.0 | 0.00 | 0.00 | 0.00 | 75 | 1017.3 |
| 20260508193505 | 54 | 341 | 0.0 | 1.7 | 0.00 | 0.00 | 0.00 | 75 | 1017.3 |
| 20260508193004 | 54 | 343 | 0.9 | 1.7 | 0.00 | 0.00 | 0.00 | 74 | 1017.3 |
| 20260508191505 | 55 | 322 | 0.0 | 1.7 | 0.00 | 0.00 | 0.00 | 73 | 1017.0 |
| 20260508191004 | 55 | 323 | 0.9 | 2.6 | 0.00 | 0.00 | 0.00 | 72 | 1016.9 |
| 20260508190504 | 55 | 310 | 1.7 | 1.7 | 0.00 | 0.00 | 0.00 | 72 | 1016.9 |
| 20260508190005 | 56 | 305 | 1.7 | 2.6 | 0.00 | 0.00 | 0.00 | 71 | 1016.9 |
| 20260508184505 | 57 | 324 | 1.7 | 2.6 | 0.00 | 0.00 | 0.00 | 67 | 1016.6 |
| 20260508184004 | 58 | 314 | 1.7 | 2.6 | 0.00 | 0.00 | 0.00 | 66 | 1016.6 |
| 20260508183004 | 58 | 323 | 1.7 | 4.3 | 0.00 | 0.00 | 0.00 | 65 | 1016.6 |
| 20260508181505 | 60 | 332 | 1.7 | 4.3 | 0.00 | 0.00 | 0.00 | 60 | 1016.6 |
| 20260508181004 | 61 | 48 | 1.7 | 2.6 | 0.00 | 0.00 | 0.00 | 59 | 1016.3 |
| 20260508180505 | 62 | 322 | 0.9 | 2.6 | 0.00 | 0.00 | 0.00 | 57 | 1016.3 |
| 20260508180005 | 62 | 321 | 0.9 | 2.6 | 0.00 | 0.00 | 0.00 | 56 | 1016.2 |
| 20260508174504 | 61 | 14 | 0.9 | 1.7 | 0.00 | 0.00 | 0.00 | 57 | 1016.1 |
| 20260508174004 | 62 | 68 | 0.9 | 2.6 | 0.00 | 0.00 | 0.00 | 57 | 1016.3 |
| 20260508173505 | 62 | 50 | 1.7 | 4.3 | 0.00 | 0.00 | 0.00 | 55 | 1016.1 |
| 20260508173005 | 62 | 66 | 1.7 | 8.7 | 0.00 | 0.00 | 0.00 | 55 | 1016.3 |